Observations for NEW YORK JF KENNEDY, NY (JFK)

KJFK 231051Z 08006KT 9SM FEW007 SCT028 BKN042 BKN230 15/15 A3031 RMK AO2 SLP265 T01500150   
KJFK 230951Z 04005KT 10SM FEW007 OVC024 16/16 A3033 RMK AO2 SLP270 T01560156
KJFK 230851Z 04003KT 10SM FEW007 OVC025 15/15 A3033 RMK AO2 SLP271 T01500150 55008  
KJFK 230751Z 05003KT 10SM FEW006 OVC026 14/14 A3033 RMK AO2 SLP270 T01440144
KJFK 230741Z 04004KT 10SM FEW006 BKN026 OVC250 14/14 A3033 RMK AO2 T01440144
KJFK 230651Z 10003KT 10SM FEW011 BKN250 13/13 A3034 RMK AO2 SLP273 T01330133
KJFK 230551Z 13004KT 10SM BKN260 14/14 A3036 RMK AO2 SLP280 T01440144 10161 20133 58011 
KJFK 230451Z 12005KT 10SM FEW180 SCT250 13/13 A3037 RMK AO2 SLP284 T01330133 402220094  
KJFK 230351Z 12005KT 10SM SCT180 BKN260 14/14 A3039 RMK AO2 SLP289 T01440144
KJFK 230251Z 00000KT 10SM BKN250 16/15 A3039 RMK AO2 SLP291 T01560150 51004 
KJFK 230151Z 11003KT 10SM BKN250 15/14 A3039 RMK AO2 SLP290 T01500144   
KJFK 230051Z 14003KT 10SM BKN250 16/14 A3039 RMK AO2 SLP289 T01560144   
KJFK 222351Z 14004KT 10SM BKN250 16/15 A3038 RMK AO2 SLP286 T01610150 10217 20156 55000 
KJFK 222251Z 14005KT 10SM BKN250 16/15 A3037 RMK AO2 SLP283 T01610150   
KJFK 222151Z 15007KT 10SM SCT180 BKN250 18/14 A3037 RMK AO2 SLP283 VIRGA OHD T01780144  
KJFK 222051Z 17010KT 10SM FEW180 BKN250 19/13 A3038 RMK AO2 SLP286 T01940128 56006  
KJFK 221951Z 17009KT 10SM SCT200 BKN250 20/12 A3038 RMK AO2 SLP286 T02000122
KJFK 221851Z 17008KT 10SM FEW200 BKN250 22/11 A3039 RMK AO2 SLP290 T02170111
KJFK 221751Z 17008KT 10SM FEW200 BKN250 22/12 A3040 RMK AO2 SLP292 T02170117 10222 20117 58008  
KJFK 221651Z 16007KT 10SM FEW200 BKN250 22/12 A3042 RMK AO2 SLP299 T02170117
KJFK 221551Z 16006KT 10SM FEW200 BKN250 22/11 A3042 RMK AO2 SLP301 T02170106
KJFK 221451Z 17003KT 10SM FEW200 BKN250 21/12 A3042 RMK AO2 SLP301 T02060117 50005  
KJFK 221351Z 19003KT 10SM FEW200 BKN250 18/14 A3043 RMK AO2 SLP303 T01830139
KJFK 221251Z 00000KT 10SM FEW200 BKN250 16/13 A3042 RMK AO2 SLP302 T01560128
KJFK 221151Z 00000KT 10SM FEW200 BKN250 12/10 A3041 RMK AO2 SLP296 T01170100 10144 20094 53012  
KJFK 221051Z 00000KT 10SM FEW250 11/09 A3039 RMK AO2 SLP292 T01060094